Language: 


Des rapports , des résumés tant et plus, au choix de chacun....


Données statistiques de la station
Quotidien Rapport Mars 3, 2017 Unités:  Anglais    Métrique   les deux
« Précédent Jour
Suivant Jour »
Quotidien Hebdomadaire Mensuel Annuel Actuel
  Haut: Bas: Moyen:
Température: 54 °F 37.8 °F 46 °F
Pt de rosée: 46.4 °F 33.6 °F 40.8 °F
Humidité: 91 % 72 % 82 %
Vitesse du vent: 11 mph 0 mph 4.5 mph
Rafales: 14.8 mph - -
Vent:- - SSE
Pression: 29.9 in 29.3 in -
Précipitation: 0.06 in    
Historical Graphs
 
 
Données statistiques pour Mars 3, 2017
Heure Température Point de rosée Pression Vent Vitesse du vent Refales Humidité Pluie (taux horaire)
00:02 38.1 °F 34.2 °F 29.9 in Calm   4.7 mph 85 % 0 in
00:07 38.5 °F 34.2 °F 29.9 in Calm   4.7 mph 85 % 0 in
00:12 38.1 °F 34.2 °F 29.9 in Calm   2.2 mph 85 % 0 in
00:17 37.9 °F 34 °F 29.9 in Calm   2.5 mph 85 % 0 in
00:22 37.8 °F 33.6 °F 29.9 in Calm   2.5 mph 85 % 0 in
00:27 37.8 °F 34 °F 29.9 in Calm   1.6 mph 86 % 0 in
00:32 37.8 °F 34 °F 29.9 in Calm   1.6 mph 86 % 0 in
00:37 37.8 °F 34 °F 29.9 in Calm   2.5 mph 86 % 0 in
00:42 37.8 °F 34 °F 29.9 in Calm   2.5 mph 86 % 0 in
00:47 37.9 °F 34.2 °F 29.9 in South 1.1 mph 4 mph 86 % 0 in
00:52 38.1 °F 34.3 °F 29.9 in South 3.4 mph 4 mph 86 % 0 in
00:57 38.5 °F 34.9 °F 29.9 in SSW 2.2 mph 3.8 mph 87 % 0 in
01:02 38.5 °F 35.1 °F 29.9 in Calm   3.8 mph 87 % 0 in
01:07 38.5 °F 35.1 °F 29.9 in South 3.4 mph 6.3 mph 87 % 0 in
01:12 38.7 °F 35.2 °F 29.9 in Calm   6.3 mph 87 % 0 in
01:17 38.8 °F 35.2 °F 29.9 in Calm   3.4 mph 87 % 0 in
01:22 39 °F 35.4 °F 29.9 in Calm   3.1 mph 87 % 0 in
01:27 39 °F 35.4 °F 29.9 in South 2.5 mph 3.6 mph 87 % 0 in
01:32 39 °F 35.4 °F 29.9 in Calm   3.6 mph 87 % 0 in
01:37 39 °F 35.4 °F 29.9 in South 3.1 mph 3.6 mph 87 % 0 in
01:42 39 °F 35.4 °F 29.9 in South 1.6 mph 4.3 mph 87 % 0 in
01:47 39.2 °F 35.8 °F 29.9 in Calm   4.5 mph 87 % 0 in
01:52 39.6 °F 36 °F 29.9 in Calm   4.5 mph 87 % 0 in
01:57 39.6 °F 36 °F 29.9 in South 1.1 mph 3.6 mph 87 % 0 in
02:02 39.9 °F 36.3 °F 29.9 in South 2.5 mph 2.9 mph 87 % 0 in
02:07 40.1 °F 36.7 °F 29.9 in Calm   6 mph 87 % 0 in
02:12 40.3 °F 36.7 °F 29.9 in SSE 2 mph 6 mph 87 % 0 in
02:17 40.5 °F 36.9 °F 29.9 in SSE 4.3 mph 6.5 mph 87 % 0 in
02:22 40.6 °F 37 °F 29.9 in South 0.9 mph 7.2 mph 87 % 0 in
02:27 40.6 °F 36.9 °F 29.9 in SSE 5.4 mph 7.2 mph 86 % 0 in
02:32 40.6 °F 36.9 °F 29.9 in SSE 3.6 mph 5.4 mph 86 % 0 in
02:37 40.6 °F 36.9 °F 29.9 in Calm   5.8 mph 86 % 0 in
02:43 40.6 °F 36.5 °F 29.9 in SSE 2 mph 6.3 mph 85 % 0 in
02:48 40.6 °F 36.5 °F 29.9 in South 3.4 mph 7.6 mph 85 % 0 in
02:53 40.8 °F 36.7 °F 29.8 in Calm   7.6 mph 85 % 0 in
02:57 40.6 °F 36.5 °F 29.8 in South 4.9 mph 6.5 mph 85 % 0 in
03:03 40.5 °F 36.3 °F 29.8 in South 2.7 mph 6.5 mph 85 % 0 in
03:08 40.5 °F 36 °F 29.9 in South 3.4 mph 5.4 mph 84 % 0 in
03:13 40.3 °F 35.8 °F 29.9 in SSE 2.5 mph 5.4 mph 84 % 0 in
03:18 40.1 °F 35.8 °F 29.9 in SSE 3.1 mph 5.4 mph 84 % 0 in
03:23 40.1 °F 35.8 °F 29.9 in Calm   6.7 mph 84 % 0 in
03:28 40.1 °F 35.8 °F 29.9 in Calm   6.7 mph 84 % 0 in
03:33 39.7 °F 35.2 °F 29.9 in SSE 3.8 mph 3.8 mph 84 % 0 in
03:38 39.7 °F 35.6 °F 29.8 in SE 3.1 mph 4 mph 85 % 0 in
03:43 39.7 °F 35.6 °F 29.8 in South 5.8 mph 5.8 mph 85 % 0 in
03:48 39.7 °F 35.6 °F 29.8 in SE 3.8 mph 5.8 mph 85 % 0 in
03:53 39.6 °F 35.4 °F 29.8 in Calm   3.8 mph 85 % 0 in
03:58 39.6 °F 35.4 °F 29.8 in Calm   4.7 mph 85 % 0 in
04:03 39.2 °F 35.1 °F 29.8 in Calm   4.7 mph 85 % 0 in
04:08 39 °F 34.9 °F 29.8 in ESE 4 mph 4 mph 85 % 0 in
04:13 39 °F 34.9 °F 29.8 in Calm   4 mph 85 % 0 in
04:18 38.8 °F 35.1 °F 29.8 in Calm   4 mph 86 % 0 in
04:23 38.7 °F 34.9 °F 29.8 in Calm   4 mph 86 % 0 in
04:28 38.5 °F 34.7 °F 29.8 in Calm   3.4 mph 86 % 0 in
04:33 38.5 °F 34.5 °F 29.8 in Calm     86 % 0 in
04:38 37.9 °F 34.2 °F 29.8 in Calm     86 % 0 in
04:43 37.8 °F 34 °F 29.8 in Calm     86 % 0 in
04:48 37.8 °F 34 °F 29.8 in Calm   3.8 mph 86 % 0 in
04:53 37.8 °F 34.3 °F 29.8 in Calm   4 mph 87 % 0 in
04:58 37.8 °F 34.3 °F 29.8 in Calm   4 mph 87 % 0 in
05:03 37.9 °F 34.5 °F 29.8 in Calm   4.7 mph 87 % 0 in
05:08 37.9 °F 34.9 °F 29.8 in SE 1.3 mph 4.7 mph 88 % 0 in
05:13 37.9 °F 34.9 °F 29.8 in Calm   2.7 mph 88 % 0 in
05:18 37.8 °F 34.5 °F 29.8 in Calm   1.3 mph 88 % 0 in
05:23 37.9 °F 34.9 °F 29.8 in Calm   2.9 mph 88 % 0 in
05:28 37.9 °F 35.1 °F 29.8 in Calm   4.7 mph 89 % 0 in
05:33 38.1 °F 35.2 °F 29.8 in ESE 2.9 mph 4.7 mph 89 % 0 in
05:38 38.5 °F 35.4 °F 29.8 in Calm   3.8 mph 89 % 0 in
05:43 38.5 °F 35.6 °F 29.8 in SE 1.3 mph 4.3 mph 89 % 0 in
05:48 38.5 °F 35.8 °F 29.8 in ESE 3.1 mph 4.3 mph 90 % 0 in
05:53 38.7 °F 36 °F 29.8 in Calm   5.6 mph 90 % 0 in
05:58 39 °F 36.3 °F 29.8 in SE 4.9 mph 5.6 mph 90 % 0 in
06:03 39 °F 36.3 °F 29.8 in ESE 3.8 mph 5.8 mph 90 % 0 in
06:08 39.2 °F 36.5 °F 29.8 in SE 1.3 mph 5.8 mph 90 % 0 in
06:13 39.2 °F 36.5 °F 29.8 in SE 2.9 mph 6.3 mph 90 % 0 in
06:18 39.2 °F 36.3 °F 29.8 in SE 4.3 mph 6.3 mph 89 % 0 in
06:23 39.6 °F 36.7 °F 29.7 in South 5.6 mph 5.6 mph 89 % 0 in
06:28 39.6 °F 36.7 °F 29.7 in SSE 4 mph 7.6 mph 89 % 0 in
06:33 39.7 °F 36.9 °F 29.7 in ESE 3.4 mph 7.6 mph 89 % 0 in
06:38 39.7 °F 36.9 °F 29.7 in ESE 3.4 mph 6 mph 89 % 0 in
06:43 39.7 °F 36.9 °F 29.7 in ESE 3.1 mph 5.6 mph 89 % 0 in
06:48 39.7 °F 36.9 °F 29.7 in SE 2.9 mph 4 mph 89 % 0 in
06:53 39.9 °F 37 °F 29.7 in SE 2.2 mph 4.3 mph 89 % 0 in
06:58 40.1 °F 37 °F 29.7 in Calm   4.9 mph 89 % 0 in
07:03 40.3 °F 37.2 °F 29.7 in SSE 3.4 mph 6 mph 89 % 0 in
07:08 40.5 °F 37.6 °F 29.7 in SSE 2.5 mph 6 mph 89 % 0 in
07:13 40.8 °F 37.6 °F 29.7 in SSE 5.6 mph 6.3 mph 88 % 0 in
07:18 40.8 °F 37.6 °F 29.7 in SSE 2.2 mph 6.3 mph 88 % 0 in
07:23 41 °F 37.8 °F 29.7 in SSE 3.8 mph 6.5 mph 88 % 0 in
07:28 41.4 °F 38.1 °F 29.7 in ESE 6.3 mph 6.5 mph 88 % 0 in
07:33 41.4 °F 37.8 °F 29.7 in SSE 6.5 mph 7.8 mph 87 % 0 in
07:38 41.5 °F 37.9 °F 29.7 in SE 2.7 mph 10.5 mph 87 % 0 in
07:43 41.9 °F 38.3 °F 29.7 in SSW 8.5 mph 10.5 mph 87 % 0 in
07:48 41.9 °F 37.9 °F 29.7 in SSE 7.8 mph 12.1 mph 86 % 0 in
07:53 42.1 °F 37.9 °F 29.7 in South 5.8 mph 12.1 mph 85 % 0 in
07:58 42.3 °F 37.9 °F 29.7 in SE 2.9 mph 8.5 mph 85 % 0 in
08:03 42.3 °F 37.8 °F 29.7 in SSE 7.8 mph 8.5 mph 84 % 0 in
08:08 42.4 °F 37.6 °F 29.7 in South 8.5 mph 9.6 mph 83 % 0 in
08:13 42.6 °F 37.6 °F 29.7 in SE 9.6 mph 12.3 mph 82 % 0 in
08:18 42.6 °F 37.2 °F 29.7 in SSE 4.3 mph 12.3 mph 81 % 0 in
08:23 42.8 °F 37 °F 29.7 in ESE 6.3 mph 10.5 mph 80 % 0 in
08:28 42.8 °F 37.2 °F 29.7 in SSE 3.8 mph 10.5 mph 81 % 0 in
08:33 42.8 °F 37 °F 29.7 in SE 10.7 mph 10.7 mph 80 % 0 in
08:38 43 °F 37.2 °F 29.7 in ESE 3.6 mph 11.4 mph 80 % 0 in
08:43 43 °F 36.9 °F 29.7 in SSE 6 mph 11.4 mph 79 % 0 in
08:48 43 °F 36.9 °F 29.7 in SE 4 mph 10.5 mph 79 % 0 in
08:53 43 °F 36.9 °F 29.7 in SE 8.1 mph 10.5 mph 79 % 0 in
08:58 43 °F 37.2 °F 29.7 in SSE 6.3 mph 10.3 mph 80 % 0 in
09:03 43 °F 37.2 °F 29.7 in SSE 3.6 mph 10.7 mph 80 % 0 in
09:08 43 °F 37.2 °F 29.7 in SE 3.4 mph 10.7 mph 80 % 0 in
09:13 43 °F 37.2 °F 29.7 in SE 6 mph 9.6 mph 80 % 0 in
09:18 43 °F 37.6 °F 29.7 in SE 4.3 mph 10.5 mph 81 % 0 in
09:23 43 °F 37.6 °F 29.7 in SSE 7.6 mph 10.5 mph 81 % 0 in
09:28 43 °F 37.6 °F 29.7 in SE 8.1 mph 10.1 mph 81 % 0 in
09:33 43 °F 37.8 °F 29.7 in SE 7.4 mph 10.1 mph 82 % 0 in
09:38 43.2 °F 37.8 °F 29.7 in SSE 7.8 mph 11.2 mph 81 % 0 in
09:43 43.3 °F 37.9 °F 29.7 in SE 6.5 mph 11.2 mph 81 % 0 in
09:48 43.3 °F 37.9 °F 29.7 in SE 7.6 mph 10.5 mph 81 % 0 in
09:53 43.5 °F 38.3 °F 29.7 in SSE 5.6 mph 10.5 mph 82 % 0 in
09:58 43.5 °F 38.1 °F 29.7 in ESE 6.3 mph 10.7 mph 81 % 0 in
10:03 43.9 °F 38.5 °F 29.7 in SSE 11 mph 11 mph 81 % 0 in
10:08 44.1 °F 38.5 °F 29.6 in SSE 6.5 mph 11 mph 81 % 0 in
10:13 44.2 °F 38.7 °F 29.6 in SE 6.5 mph 11 mph 81 % 0 in
10:18 44.2 °F 39 °F 29.6 in SSE 10.1 mph 10.3 mph 82 % 0 in
10:23 44.2 °F 39 °F 29.6 in SSE 8.7 mph 11 mph 82 % 0 in
10:28 44.2 °F 39.2 °F 29.6 in SE 6.3 mph 13.2 mph 82 % 0 in
10:34 44.2 °F 39.2 °F 29.6 in South 6.5 mph 13.2 mph 82 % 0 in
10:39 44.2 °F 39.2 °F 29.6 in SSE 7.8 mph 11.4 mph 82 % 0 in
10:44 44.2 °F 39.2 °F 29.6 in SSE 5.8 mph 11 mph 82 % 0 in
10:49 44.2 °F 39.2 °F 29.6 in SE 6.3 mph 11 mph 82 % 0 in
10:54 44.2 °F 39.2 °F 29.6 in SE 4.5 mph 11 mph 82 % 0 in
10:59 44.2 °F 39.4 °F 29.6 in SSE 4.7 mph 10.3 mph 83 % 0 in
11:04 44.2 °F 39.4 °F 29.6 in SSE 6 mph 10.3 mph 83 % 0 in
11:09 44.2 °F 39.4 °F 29.6 in SSW 7.4 mph 11 mph 83 % 0 in
11:14 44.2 °F 39.6 °F 29.6 in SSE 5.6 mph 11 mph 83 % 0 in
11:19 44.2 °F 39.6 °F 29.6 in SSE 3.6 mph 8.5 mph 83 % 0 in
11:23 44.2 °F 39.4 °F 29.6 in South 2.5 mph 8.5 mph 83 % 0.01 in
11:29 44.1 °F 39.6 °F 29.6 in SSE 4 mph 4.9 mph 84 % 0.01 in
11:34 44.1 °F 39.7 °F 29.6 in SE 5.4 mph 9.8 mph 85 % 0.03 in
11:38 43.9 °F 39.9 °F 29.6 in ESE 3.1 mph 9.8 mph 86 % 0.05 in
11:44 43.5 °F 39.9 °F 29.6 in SE 5.6 mph 9.8 mph 87 % 0.06 in
11:48 43.5 °F 39.9 °F 29.6 in Calm   6 mph 87 % 0.06 in
11:53 43.9 °F 40.5 °F 29.6 in SE 3.6 mph 5.6 mph 88 % 0.06 in
11:59 44.2 °F 41.2 °F 29.6 in SE 5.6 mph 5.8 mph 89 % 0.06 in
12:03 44.4 °F 41.7 °F 29.6 in ESE 5.4 mph 6.5 mph 90 % 0.06 in
12:08 45.1 °F 42.8 °F 29.6 in SE 4 mph 7.6 mph 91 % 0.06 in
12:14 45.9 °F 43.3 °F 29.6 in SE 4.3 mph 7.6 mph 91 % 0.06 in
12:18 46 °F 43.3 °F 29.6 in ESE 5.8 mph 6.5 mph 90 % 0.06 in
12:23 46.2 °F 43.5 °F 29.6 in SE 3.6 mph 7.6 mph 90 % 0.04 in
12:28 46.6 °F 43.3 °F 29.6 in SE 6.5 mph 8.1 mph 89 % 0.04 in
12:33 46.8 °F 43.7 °F 29.6 in SE 6.3 mph 8.1 mph 89 % 0.02 in
12:38 47.1 °F 43.9 °F 29.6 in SSE 5.4 mph 7.6 mph 88 % 0.01 in
12:43 47.5 °F 43.9 °F 29.6 in SSE 4.3 mph 8.7 mph 87 % 0 in
12:48 47.5 °F 43.5 °F 29.6 in SSE 10.7 mph 10.7 mph 86 % 0 in
12:53 47.5 °F 43.5 °F 29.5 in South 5.8 mph 10.7 mph 86 % 0 in
12:58 47.7 °F 43.7 °F 29.5 in SSE 4.9 mph 8.5 mph 86 % 0 in
13:04 48.2 °F 43.9 °F 29.5 in South 7.6 mph 8.5 mph 85 % 0 in
13:09 48.7 °F 44.4 °F 29.6 in SSE 2.9 mph 8.5 mph 85 % 0 in
13:13 49.1 °F 44.8 °F 29.6 in SE 4 mph 6.5 mph 85 % 0 in
13:18 49.5 °F 44.8 °F 29.6 in SSE 6 mph 9.2 mph 84 % 0 in
13:24 49.8 °F 45 °F 29.6 in SSE 6.5 mph 9.2 mph 83 % 0 in
13:28 50 °F 45 °F 29.6 in SE 6.7 mph 7.4 mph 83 % 0 in
13:33 50.4 °F 45.1 °F 29.6 in SSE 6.3 mph 7.4 mph 82 % 0 in
13:38 50.7 °F 45.1 °F 29.5 in SSE 5.8 mph 7.8 mph 81 % 0 in
13:43 50.7 °F 44.8 °F 29.5 in South 6.7 mph 7.8 mph 80 % 0 in
13:48 50.5 °F 43.9 °F 29.5 in SSE 4.5 mph 8.5 mph 78 % 0 in
13:53 50.5 °F 43.9 °F 29.5 in South 6.7 mph 8.5 mph 78 % 0 in
13:58 50.4 °F 43.3 °F 29.5 in SSE 5.6 mph 8.5 mph 77 % 0 in
14:03 50.5 °F 43.5 °F 29.5 in SE 10.5 mph 10.5 mph 77 % 0 in
14:04 50.5 °F 43.2 °F 29.5 in SE 7.4 mph 10.5 mph 76 % 0 in
14:09 51.1 °F 44.4 °F 29.5 in South 4 mph 10.5 mph 78 % 0 in
14:14 51.3 °F 44.2 °F 29.5 in South 5.8 mph 8.7 mph 77 % 0 in
14:19 51.3 °F 43.9 °F 29.5 in South 5.4 mph 8.9 mph 76 % 0 in
14:24 51.3 °F 43.9 °F 29.5 in SSE 5.4 mph 8.9 mph 76 % 0 in
14:29 51.3 °F 43.9 °F 29.5 in SSE 5.6 mph 8.5 mph 76 % 0 in
14:34 51.1 °F 43.7 °F 29.5 in SE 2.9 mph 9.8 mph 76 % 0 in
14:39 51.1 °F 43.7 °F 29.5 in ESE 6 mph 9.8 mph 76 % 0 in
14:44 51.3 °F 43.9 °F 29.5 in South 4.3 mph 7.4 mph 76 % 0 in
14:49 51.4 °F 44.1 °F 29.5 in SSE 5.6 mph 10.5 mph 76 % 0 in
14:54 51.6 °F 44.2 °F 29.5 in SE 3.6 mph 10.5 mph 76 % 0 in
14:59 52 °F 45 °F 29.5 in SSE 2.5 mph 7.8 mph 77 % 0 in
15:04 52.2 °F 44.8 °F 29.5 in SSE 5.6 mph 8.5 mph 76 % 0 in
15:09 52.2 °F 44.8 °F 29.5 in SSE 6 mph 10.1 mph 76 % 0 in
15:14 52.3 °F 45 °F 29.5 in South 6.5 mph 10.1 mph 76 % 0 in
15:19 52.5 °F 44.8 °F 29.5 in SSE 3.8 mph 10.5 mph 75 % 0 in
15:24 52.5 °F 44.8 °F 29.5 in South 6.7 mph 10.5 mph 75 % 0 in
15:29 52.5 °F 44.8 °F 29.5 in SSE 7.2 mph 11 mph 75 % 0 in
15:34 52.5 °F 44.4 °F 29.5 in SSE 7.8 mph 11 mph 74 % 0 in
15:39 52.5 °F 44.6 °F 29.5 in SSE 5.6 mph 11 mph 74 % 0 in
15:44 52.9 °F 44.8 °F 29.5 in SSE 8.7 mph 11 mph 74 % 0 in
15:49 53.1 °F 45.3 °F 29.5 in South 3.6 mph 9.6 mph 75 % 0 in
15:54 53.2 °F 45.1 °F 29.4 in SSE 5.4 mph 9.4 mph 74 % 0 in
15:59 53.2 °F 45.3 °F 29.4 in SSE 8.5 mph 10.3 mph 74 % 0 in
16:04 53.4 °F 45.3 °F 29.4 in SSW 7.2 mph 10.3 mph 74 % 0 in
16:09 54 °F 45.3 °F 29.4 in South 10.5 mph 12.8 mph 73 % 0 in
16:14 54 °F 45.1 °F 29.4 in South 6 mph 12.8 mph 72 % 0 in
16:19 54 °F 45.7 °F 29.4 in SSE 7.4 mph 11.9 mph 73 % 0 in
16:24 54 °F 45.1 °F 29.4 in SSE 6.3 mph 10.7 mph 72 % 0 in
16:29 54 °F 45.1 °F 29.4 in SSE 8.7 mph 14.8 mph 72 % 0 in
16:30 54 °F 45.1 °F 29.4 in SSE 10.7 mph 14.8 mph 72 % 0 in
16:35 54 °F 45.1 °F 29.4 in SSE 5.6 mph 14.8 mph 72 % 0 in
16:40 54 °F 45.1 °F 29.4 in SSE 10.1 mph 13.2 mph 72 % 0 in
16:50 53.8 °F 45 °F 29.4 in SSE 6.5 mph 12.1 mph 72 % 0 in
16:55 53.8 °F 45 °F 29.4 in South 7.6 mph 12.1 mph 72 % 0 in
17:00 53.8 °F 45 °F 29.4 in SSE 8.1 mph 12.5 mph 72 % 0 in
17:05 53.4 °F 44.8 °F 29.4 in South 6 mph 12.5 mph 72 % 0 in
17:10 53.2 °F 45 °F 29.4 in South 6 mph 11.4 mph 73 % 0 in
17:15 53.2 °F 44.8 °F 29.4 in SSE 7.6 mph 14.8 mph 73 % 0 in
17:20 53.2 °F 44.8 °F 29.4 in SSE 10.3 mph 14.8 mph 73 % 0 in
17:25 53.1 °F 45 °F 29.4 in South 6.5 mph 13 mph 74 % 0 in
17:30 53.1 °F 45 °F 29.4 in South 4.9 mph 11.2 mph 74 % 0 in
17:35 52.9 °F 44.8 °F 29.4 in SSE 6.5 mph 12.8 mph 74 % 0 in
17:40 52.5 °F 44.6 °F 29.4 in SE 6.3 mph 12.8 mph 74 % 0 in
17:45 52.5 °F 44.6 °F 29.4 in SSE 6.5 mph 10.1 mph 74 % 0 in
17:50 52.5 °F 45 °F 29.4 in South 3.6 mph 10.1 mph 75 % 0 in
17:55 52.5 °F 45 °F 29.4 in South 5.6 mph 10.7 mph 75 % 0 in
18:00 52.5 °F 44.8 °F 29.4 in South 6 mph 10.7 mph 75 % 0 in
18:05 52.5 °F 44.8 °F 29.4 in South 5.6 mph 11 mph 75 % 0 in
18:10 52.5 °F 44.8 °F 29.4 in South 8.5 mph 13.2 mph 75 % 0 in
18:15 52.3 °F 45 °F 29.4 in South 4.3 mph 13.2 mph 76 % 0 in
18:17 52.3 °F 45 °F 29.4 in South 5.8 mph 11 mph 76 % 0 in
18:22 52.3 °F 45 °F 29.4 in SSE 8.7 mph 12.3 mph 76 % 0 in
18:27 52.3 °F 45 °F 29.4 in SSE 7.2 mph 12.3 mph 76 % 0 in
18:32 52.2 °F 45.1 °F 29.4 in SSW 5.6 mph 10.7 mph 77 % 0 in
18:37 52.2 °F 45.1 °F 29.4 in SSW 7.2 mph 13 mph 77 % 0 in
18:42 52.2 °F 45.1 °F 29.4 in SSW 5.8 mph 13 mph 77 % 0 in
18:47 52.2 °F 45.1 °F 29.4 in SSE 5.6 mph 10.1 mph 77 % 0 in
18:52 52.2 °F 45.1 °F 29.4 in SE 4.3 mph 10.1 mph 77 % 0 in
18:57 52.2 °F 45.1 °F 29.4 in South 6.3 mph 11 mph 77 % 0 in
19:02 52.2 °F 45.1 °F 29.4 in SSW 3.6 mph 11 mph 77 % 0 in
19:07 52.2 °F 45.1 °F 29.4 in SSE 10.1 mph 10.1 mph 77 % 0 in
19:12 52.2 °F 45.1 °F 29.4 in South 6.3 mph 12.3 mph 77 % 0 in
19:17 52.2 °F 45.1 °F 29.4 in SW 8.7 mph 12.3 mph 77 % 0 in
19:22 52.2 °F 45.1 °F 29.4 in SSW 7.6 mph 11.9 mph 77 % 0 in
19:27 52.2 °F 45.1 °F 29.4 in SSE 4.9 mph 9.6 mph 77 % 0 in
19:32 52.2 °F 45.1 °F 29.4 in South 5.8 mph 8.5 mph 77 % 0 in
19:37 52.2 °F 45.1 °F 29.4 in SSW 7.2 mph 8.5 mph 77 % 0 in
19:42 52 °F 45 °F 29.4 in WSW 5.4 mph 9.6 mph 77 % 0 in
19:47 52 °F 45.3 °F 29.4 in South 6 mph 9.6 mph 78 % 0 in
19:52 51.8 °F 45.1 °F 29.4 in South 7.8 mph 9.4 mph 78 % 0 in
19:57 51.8 °F 45.1 °F 29.4 in South 7.4 mph 9.2 mph 78 % 0 in
20:02 51.8 °F 45.1 °F 29.4 in South 6.5 mph 9.2 mph 78 % 0 in
20:07 51.8 °F 45.1 °F 29.4 in SSE 4 mph 12.3 mph 78 % 0 in
20:12 52 °F 45.7 °F 29.4 in South 4.3 mph 12.3 mph 79 % 0 in
20:17 52 °F 45.3 °F 29.4 in South 8.5 mph 13.2 mph 78 % 0 in
20:22 51.8 °F 45.1 °F 29.4 in South 5.4 mph 13.2 mph 78 % 0 in
20:27 51.8 °F 45.5 °F 29.4 in SSW 4.9 mph 11 mph 79 % 0 in
20:32 51.8 °F 45.5 °F 29.4 in South 7.2 mph 12.3 mph 79 % 0 in
20:37 51.8 °F 45.5 °F 29.4 in SSE 7.6 mph 12.3 mph 79 % 0 in
20:42 51.8 °F 45.5 °F 29.4 in South 9.8 mph 11 mph 79 % 0 in
20:47 51.8 °F 45.5 °F 29.4 in SSE 9.8 mph 10.5 mph 79 % 0 in
20:52 51.8 °F 45.5 °F 29.4 in SSE 6.3 mph 10.1 mph 79 % 0 in
20:57 51.6 °F 45.3 °F 29.4 in SSE 8.5 mph 10.7 mph 79 % 0 in
21:02 51.6 °F 45.3 °F 29.4 in SSE 6.3 mph 12.8 mph 79 % 0 in
21:07 51.6 °F 45.7 °F 29.4 in South 5.6 mph 13 mph 80 % 0 in
21:12 51.3 °F 45.3 °F 29.4 in SSW 7.6 mph 13 mph 80 % 0 in
21:17 51.3 °F 45.3 °F 29.4 in SSW 4 mph 8.7 mph 80 % 0 in
21:22 51.1 °F 45.3 °F 29.4 in South 4.3 mph 9.6 mph 81 % 0 in
21:27 50.9 °F 45.3 °F 29.4 in South 5.6 mph 11 mph 81 % 0 in
21:32 50.7 °F 45.1 °F 29.4 in South 5.4 mph 11 mph 81 % 0 in
21:37 50.7 °F 45.3 °F 29.4 in SSE 4.9 mph 8.1 mph 82 % 0 in
21:42 50.5 °F 45.1 °F 29.4 in SSE 4.9 mph 7.8 mph 82 % 0 in
21:47 50.5 °F 45.1 °F 29.4 in SSE 2.7 mph 8.1 mph 82 % 0 in
21:52 50.5 °F 45.1 °F 29.4 in SSE 3.6 mph 8.1 mph 82 % 0 in
21:57 50.5 °F 45.7 °F 29.4 in SSE 3.4 mph 8.7 mph 83 % 0 in
22:02 50.5 °F 45.7 °F 29.4 in South 4.7 mph 9.8 mph 83 % 0 in
22:07 50.7 °F 45.7 °F 29.3 in SSE 3.1 mph 9.8 mph 83 % 0 in
22:12 50.9 °F 45.9 °F 29.3 in South 5.8 mph 7.8 mph 83 % 0 in
22:17 50.9 °F 46.2 °F 29.3 in SSE 7.8 mph 7.8 mph 84 % 0 in
22:22 51.1 °F 46.4 °F 29.3 in SSE 8.7 mph 10.5 mph 84 % 0 in
22:27 51.1 °F 46.4 °F 29.3 in SSE 5.6 mph 10.5 mph 84 % 0 in
22:32 51.1 °F 46 °F 29.3 in SSE 3.6 mph 9.2 mph 83 % 0 in
22:37 51.1 °F 46 °F 29.3 in SSE 4.3 mph 8.7 mph 83 % 0 in
22:42 51.1 °F 46 °F 29.3 in SSE 4.3 mph 9.6 mph 83 % 0 in
22:47 50.9 °F 45.9 °F 29.3 in SSW 2.7 mph 9.6 mph 83 % 0 in
22:52 50.9 °F 45.9 °F 29.3 in South 4 mph 5.6 mph 83 % 0 in
22:57 50.7 °F 45.7 °F 29.3 in Calm   5.6 mph 83 % 0 in
23:02 50.4 °F 45.3 °F 29.3 in Calm   2.5 mph 83 % 0 in
23:07 50.4 °F 45.3 °F 29.3 in Calm   2.7 mph 83 % 0 in
23:12 50.5 °F 45.9 °F 29.3 in Calm   2.7 mph 84 % 0 in
23:17 50.5 °F 45.9 °F 29.3 in SSE 0.9 mph 2.5 mph 84 % 0 in
23:22 50.5 °F 45.9 °F 29.3 in SSE 1.3 mph 4.5 mph 84 % 0 in
23:27 50.4 °F 45.7 °F 29.3 in SSW 4.7 mph 5.8 mph 84 % 0 in
23:32 50.5 °F 45.9 °F 29.3 in South 4 mph 8.1 mph 84 % 0 in
23:37 50.7 °F 46 °F 29.3 in SSE 2.9 mph 8.1 mph 84 % 0 in
23:42 50.7 °F 46 °F 29.3 in SSE 1.6 mph 6.3 mph 84 % 0 in
23:47 50.5 °F 45.9 °F 29.3 in South 6.3 mph 6.3 mph 84 % 0 in
23:53 50.7 °F 46 °F 29.3 in SSW 5.8 mph 7.6 mph 84 % 0 in
23:58 50.7 °F 46 °F 29.3 in South 3.4 mph 7.6 mph 84 % 0 in
Le Gheer Warneton
Courtoisie de Weather Underground - 2.25 mb

Mise a jour : 17/12/2017 22:29:12
Généré par Cumulus 1.9.4 (1099)